LIPE Airport Information

Runway Information
Runway 12 Length 9196 ft width 148 ft
Elevation 120 ft Threshold 1007 ft Heading 117
Runway 30 Length 9196 ft Width 148 ft
Elevation 120 ft Threshold 1188 ft Heading 297
Airport Frequencies
Type APP Name APP Frequency 120.1 MHZ
Type ATIS Name ATIS Frequency 134.875 MHZ
Type GND Name GND Frequency 129.925 MHZ
Type TWR Name TWR Frequency 120.8 MHZ
Airport Navaids
Type VOR-DME Name Bologna Frequency 117100 KHZ
Type NDB Name Bologna Frequency 413 KHZ
Airport Weather Information & NOTAM
ADDS - METARS form results

(0801 UTC 03 July 2022)
Data provider http://aviationweather.gov/metar/data/
 
METAR text: LIPE 030750Z 27004KT 220V320 CAVOK 29/17 Q1017
Conditions at: LIPE (BOLOGNA/BORGO (A, IT) observed 0750 UTC 03 July 2022
Temperature: 29.0°C (84°F)
Dewpoint: 17.0°C (63°F) [RH = 48%]
Pressure (altimeter): 30.03 inches Hg (1017.0 mb)
Winds: from the W (270 degrees) at 5 MPH (4 knots; 2.1 m/s)
Visibility: 6 or more miles (10+ km)
Ceiling: ceiling and visibility are OK
Clouds: unknown
Weather: no significant weather observed at this time

METAR text: LIPE 030720Z 27004KT 230V350 CAVOK 28/17 Q1017
Conditions at: LIPE (BOLOGNA/BORGO (A, IT) observed 0720 UTC 03 July 2022
Temperature: 28.0°C (82°F)
Dewpoint: 17.0°C (63°F) [RH = 51%]
Pressure (altimeter): 30.03 inches Hg (1017.0 mb)
Winds: from the W (270 degrees) at 5 MPH (4 knots; 2.1 m/s)
Visibility: 6 or more miles (10+ km)
Ceiling: ceiling and visibility are OK
Clouds: unknown
Weather: no significant weather observed at this time

Forecast for: LIPE (BOLOGNA/BORGO (A, IT)
Text: TAF LIPE 030500Z 0306/0406 VRB05KT CAVOK
Forecast period: 0600 to 1700 UTC 03 July 2022
Forecast type: FROM: standard forecast or significant change
Winds: variable direction winds at 6 MPH (5 knots; 2.6 m/s)
Visibility: 6 or more miles (10+ km)
Ceiling: unknown
Clouds: missing
Weather: NSW  (no significant weather)
Text: BECMG 0317/0319 12010KT
Forecast period: 1700 to 2200 UTC 03 July 2022
Forecast type: BECOMING: Conditions expected to become as follows by 1900 UTC 03 July 2022
Winds: from the ESE (120 degrees) at 12 MPH (10 knots; 5.1 m/s)
Visibility: 6 or more miles (10+ km)
Ceiling: unknown
Clouds: missing
Weather: NSW  (no significant weather)
Text: BECMG 0322/0324 VRB05KT
Forecast period: 2200 UTC 03 July 2022 to 0600 UTC 04 July 2022
Forecast type: BECOMING: Conditions expected to become as follows by 0000 UTC 04 July 2022
Winds: variable direction winds at 6 MPH (5 knots; 2.6 m/s)
Visibility: 6 or more miles (10+ km)
Ceiling: unknown
Clouds: missing
Weather: NSW  (no significant weather)